Weather History for KRTS - March, 2014

Change the Weather History Date:

Tuesday, March 25, 2014

  Actual Average (KRNO) Record (KRNO)
Temperature  
Mean Temperature 46 °F 47 °F  
Max Temperature 55 °F 60 °F 78 °F (1960)
Min Temperature 37 °F 35 °F 12 °F (1902)
Degree Days  
Heating Degree Days 19 18  
Month to date heating degree days 492  
Since 1 July heating degree days 4130  
Cooling Degree Days 0 0  
Month to date cooling degree days 0  
Year to date cooling degree days 0  
Moisture  
Dew Point 20 °F    
Average Humidity 36    
Maximum Humidity 87    
Minimum Humidity 19    
Precipitation  
Precipitation 0.00 in 0.02 in 0.60 in (1928)
Month to date precipitation 0.66  
Year to date precipitation 2.71  
Snow  
Snow 0.00 in 0.00 in 2.40 in (1920)
Month to date snowfall 1.7  
Since 1 July snowfall 20.7  
Snow Depth -    
Sea Level Pressure  
Sea Level Pressure 29.90 in    
Wind  
Wind Speed 10 mph (WSW)    
Max Wind Speed 25 mph    
Max Gust Speed 41 mph    
Visibility 10 miles    
Events Rain    
T = Trace of Precipitation, MM = Missing Value Source: NWS Daily Summary

Daily Weather History Graph

Daily Weather History Graph

Search for Another Location

Airport or City:

Trip Planner

Search our weather history database for the weather conditions in past years. The results will help you decide how hot, cold, wet, or windy it might be!

Date:

Astronomy

Mar. 25, 2014 Rise Set
Actual Time 6:54 AM PDT 7:16 PM PDT
Civil Twilight 6:27 AM PDT 7:43 PM PDT
Nautical Twilight 5:56 AM PDT 8:15 PM PDT
Astronomical Twilight 5:23 AM PDT 8:47 PM PDT
Moon 3:19 AM PDT (3/25) 1:53 PM PDT (3/25)
Length of Visible Light 13h 15m
Length of Day
12h 21m
Waning Crescent, 31% of the Moon is Illuminated
Mar 25
Waning Crescent
Mar 30
New
Apr 7
First Quarter
Apr 15
Full
Apr 22
Last Quarter

Hourly Weather History & Observations

Time (PDT) Temp. Windchill Dew Point Humidity Pressure Visibility Wind Dir Wind Speed Gust Speed Precip Events Conditions
12:15 AM 46.4 °F 43.5 °F 6.8 °F 20% 30.09 in 10.0 mi NNE 5.8 mph - N/A   Clear
12:35 AM 41.0 °F 35.2 °F 6.8 °F 24% 30.08 in 10.0 mi North 9.2 mph - N/A   Clear
12:55 AM 44.6 °F 39.2 °F 8.6 °F 23% 30.08 in 10.0 mi North 10.4 mph - N/A   Clear
1:15 AM 44.6 °F 41.4 °F 6.8 °F 21% 30.07 in 10.0 mi NNE 5.8 mph - N/A   Clear
1:35 AM 42.8 °F 39.3 °F 6.8 °F 23% 30.07 in 10.0 mi North 5.8 mph - N/A   Clear
1:55 AM 44.6 °F 41.4 °F 6.8 °F 21% 30.06 in 10.0 mi North 5.8 mph - N/A   Clear
2:15 AM 44.6 °F 43.1 °F 8.6 °F 23% 30.05 in 10.0 mi ESE 3.5 mph - N/A   Clear
2:35 AM 46.4 °F 44.3 °F 8.6 °F 22% 30.05 in 10.0 mi NW 4.6 mph - N/A   Clear
2:55 AM 46.4 °F 43.5 °F 10.4 °F 23% 30.04 in 10.0 mi West 5.8 mph - N/A   Clear
3:15 AM 46.4 °F 40.7 °F 10.4 °F 23% 30.03 in 10.0 mi West 12.7 mph 17.3 mph N/A   Clear
3:35 AM 48.2 °F - 10.4 °F 22% 30.03 in 10.0 mi West 16.1 mph 19.6 mph N/A   Clear
3:55 AM 50.0 °F - 10.4 °F 20% 30.03 in 10.0 mi West 13.8 mph - N/A   Clear
4:15 AM 46.4 °F 40.4 °F 14.0 °F 27% 30.02 in 10.0 mi West 13.8 mph 26.5 mph N/A   Clear
4:35 AM 50.0 °F - 14.0 °F 24% 30.01 in 10.0 mi West 11.5 mph 20.7 mph N/A   Clear
4:55 AM 48.2 °F - 14.0 °F 25% 30.01 in 10.0 mi West 9.2 mph 16.1 mph N/A   Clear
5:15 AM 44.6 °F 42.2 °F 14.0 °F 29% 30.01 in 10.0 mi WSW 4.6 mph - N/A   Clear
5:35 AM 44.6 °F 42.2 °F 15.8 °F 31% 30.00 in 10.0 mi SW 4.6 mph - N/A   Clear
5:55 AM 46.4 °F 41.9 °F 15.8 °F 29% 29.99 in 10.0 mi SSE 9.2 mph 16.1 mph N/A   Clear
6:15 AM 50.0 °F - 17.6 °F 28% 29.99 in 10.0 mi South 9.2 mph - N/A   Clear
6:35 AM 50.0 °F - 17.6 °F 28% 29.98 in 10.0 mi South 8.1 mph - N/A   Clear
6:55 AM 50.0 °F - 17.6 °F 28% 29.98 in 10.0 mi SSE 8.1 mph - N/A   Clear
7:15 AM 50.0 °F - 17.6 °F 28% 29.97 in 10.0 mi South 9.2 mph - N/A   Clear
7:35 AM 50.0 °F - 17.6 °F 28% 29.97 in 10.0 mi South 6.9 mph - N/A   Clear
7:55 AM 50.0 °F - 17.6 °F 28% 29.96 in 10.0 mi SE 6.9 mph - N/A   Clear
8:15 AM 51.8 °F - 17.6 °F 26% 29.96 in 10.0 mi SSW 4.6 mph - N/A   Clear
8:35 AM 50.0 °F - 19.4 °F 30% 29.95 in 10.0 mi Calm Calm - N/A   Clear
8:55 AM 50.0 °F - 17.6 °F 28% 29.94 in 10.0 mi ESE 3.5 mph - N/A   Clear
9:15 AM 51.8 °F - 17.6 °F 26% 29.93 in 10.0 mi Calm Calm - N/A   Clear
9:35 AM 53.6 °F - 19.4 °F 26% 29.93 in 10.0 mi SSW 10.4 mph 16.1 mph N/A   Clear
9:55 AM 53.6 °F - 19.4 °F 26% 29.92 in 10.0 mi South 12.7 mph 17.3 mph N/A   Clear
10:15 AM 53.6 °F - 17.6 °F 24% 29.91 in 10.0 mi South 11.5 mph 18.4 mph N/A   Clear
10:35 AM 53.6 °F - 17.6 °F 24% 29.91 in 10.0 mi SW 13.8 mph 19.6 mph N/A   Clear
10:55 AM 53.6 °F - 19.4 °F 26% 29.90 in 10.0 mi WSW 8.1 mph - N/A   Partly Cloudy
11:15 AM 53.6 °F - 21.2 °F 28% 29.90 in 10.0 mi WSW 20.7 mph 32.2 mph N/A   Partly Cloudy
11:35 AM 53.6 °F - 23.0 °F 30% 29.91 in 10.0 mi West 17.3 mph 28.8 mph N/A   Clear
11:55 AM 53.6 °F - 23.0 °F 30% 29.90 in 10.0 mi WSW 17.3 mph 26.5 mph N/A   Clear
12:15 PM 51.8 °F - 19.4 °F 28% 29.90 in 10.0 mi WSW 25.3 mph 28.8 mph N/A   Clear
12:35 PM 51.8 °F - 14.0 °F 22% 29.89 in 10.0 mi WSW 24.2 mph 35.7 mph N/A   Clear
12:55 PM 51.8 °F - 10.4 °F 19% 29.89 in 10.0 mi WSW 21.9 mph 29.9 mph N/A   Clear
1:15 PM 53.6 °F - 12.2 °F 19% 29.89 in 10.0 mi WSW 24.2 mph 32.2 mph N/A   Clear
1:35 PM 55.4 °F - 14.0 °F 20% 29.89 in 10.0 mi WSW 20.7 mph 29.9 mph N/A   Clear
1:55 PM 55.4 °F - 14.0 °F 20% 29.89 in 10.0 mi WSW 23.0 mph 29.9 mph N/A   Clear
2:15 PM 55.4 °F - 15.8 °F 21% 29.88 in 10.0 mi SW 24.2 mph 33.4 mph N/A   Clear
2:35 PM 53.6 °F - 17.6 °F 24% 29.87 in 10.0 mi SW 18.4 mph 24.2 mph N/A   Partly Cloudy
2:55 PM 53.6 °F - 23.0 °F 30% 29.85 in 10.0 mi WSW 24.2 mph 41.4 mph N/A   Mostly Cloudy
3:15 PM 51.8 °F - 26.6 °F 38% 29.84 in 10.0 mi West 25.3 mph 34.5 mph N/A   Mostly Cloudy
3:35 PM 53.6 °F - 26.6 °F 35% 29.84 in 10.0 mi WSW 21.9 mph 28.8 mph N/A   Partly Cloudy
3:55 PM 51.8 °F - 23.0 °F 33% 29.84 in 10.0 mi SW 20.7 mph 34.5 mph N/A   Partly Cloudy
4:15 PM 50.0 °F - 23.0 °F 35% 29.83 in 10.0 mi SSW 10.4 mph 24.2 mph N/A   Mostly Cloudy
4:35 PM 51.8 °F - 23.0 °F 33% 29.82 in 10.0 mi West 13.8 mph 33.4 mph N/A   Mostly Cloudy
4:55 PM 51.8 °F - 24.8 °F 35% 29.80 in 10.0 mi SW 17.3 mph 31.1 mph N/A   Overcast
5:15 PM 51.8 °F - 24.8 °F 35% 29.81 in 10.0 mi West 17.3 mph 31.1 mph N/A   Overcast
5:35 PM 51.8 °F - 24.8 °F 35% 29.79 in 10.0 mi SW 15.0 mph 24.2 mph N/A   Overcast
5:55 PM 50.0 °F - 24.8 °F 37% 29.80 in 10.0 mi WSW 18.4 mph 23.0 mph N/A   Overcast
6:15 PM 48.2 °F - 23.0 °F 37% 29.80 in 10.0 mi West 17.3 mph 25.3 mph N/A   Overcast
6:35 PM 48.2 °F - 24.8 °F 40% 29.78 in 10.0 mi WSW 11.5 mph 20.7 mph N/A   Overcast
6:55 PM 46.4 °F 39.8 °F 26.6 °F 46% 29.78 in 10.0 mi WSW 16.1 mph 28.8 mph N/A   Scattered Clouds
7:15 PM 46.4 °F 39.0 °F 26.6 °F 46% 29.77 in 10.0 mi West 19.6 mph 29.9 mph N/A   Partly Cloudy
7:35 PM 44.6 °F 38.8 °F 28.4 °F 53% 29.77 in 10.0 mi West 11.5 mph 17.3 mph N/A   Partly Cloudy
7:55 PM 44.6 °F 40.2 °F 28.4 °F 53% 29.78 in 10.0 mi West 8.1 mph 16.1 mph N/A   Clear
8:15 PM 42.8 °F 37.5 °F 28.4 °F 57% 29.78 in 10.0 mi NW 9.2 mph - N/A   Scattered Clouds
8:35 PM 44.6 °F 40.2 °F 28.4 °F 53% 29.78 in 10.0 mi West 8.1 mph 16.1 mph N/A   Overcast
8:55 PM 41.0 °F 33.9 °F 32.0 °F 70% 29.78 in 10.0 mi West 12.7 mph 18.4 mph N/A Rain Light Rain
9:15 PM 39.2 °F 35.0 °F 32.0 °F 75% 29.78 in 10.0 mi WNW 5.8 mph - N/A   Mostly Cloudy
9:35 PM 39.2 °F - 32.0 °F 75% 29.77 in 10.0 mi Calm Calm - N/A   Overcast
9:55 PM 39.2 °F 34.2 °F 33.8 °F 81% 29.77 in 10.0 mi NW 6.9 mph - N/A Rain Light Rain
10:15 PM 39.2 °F 34.2 °F 32.0 °F 75% 29.76 in 10.0 mi North 6.9 mph - N/A   Mostly Cloudy
10:35 PM 37.4 °F 32.1 °F 33.8 °F 87% 29.76 in 10.0 mi ENE 6.9 mph - N/A   Mostly Cloudy
10:55 PM 39.2 °F - 32.0 °F 75% 29.75 in 10.0 mi Calm Calm - N/A   Overcast
11:15 PM 37.4 °F 32.8 °F 32.0 °F 81% 29.75 in 10.0 mi WNW 5.8 mph - N/A   Mostly Cloudy
11:35 PM 37.4 °F 32.8 °F 32.0 °F 81% 29.75 in 10.0 mi WSW 5.8 mph - N/A   Mostly Cloudy
11:55 PM 39.2 °F 34.2 °F 32.0 °F 75% 29.74 in 10.0 mi West 6.9 mph - N/A   Mostly Cloudy